Antonios — SY8410 — position and weather

sailwx.info

Track history (hours):
 
Tides and Currents Weather Stations Pressure Air Temp Water Temp Dewpoint Dewpoint Depression Visibility Wind Speed Wind Dir Waves Ship Positions

Antonios

Last reported at 2014-Jul-30 21:07 UTC. Time now 2014-Jul-30 23:15 UTC.
Position N 36°56' E 026°60'.

Length 57 m; draft 2.9 m.

Type: Tanker. MMSI: 239191300.

Date/timePositionNaut miles runAvg speedWind from/ knotsBaromVisibWave heightAir tempDewpointWater temp
2014-Jul-30 21:07N 36°56' E 026°60'610.4
2014-Jul-30 20:33N 36°53' E 026°53'1110.8
2014-Jul-30 19:33N 36°52' E 026°40'1110.9
2014-Jul-30 18:33N 36°50' E 026°26'9 9.5
2014-Jul-30 17:33N 36°44' E 026°17'10 9.8
2014-Jul-30 16:33N 36°41' E 026°05'1010.2
2014-Jul-30 15:33N 36°38' E 025°53'1010.3
2014-Jul-30 14:33N 36°35' E 025°41'10 9.9
2014-Jul-30 13:33N 36°32' E 025°29'7 7.4
2014-Jul-30 12:33N 36°26' E 025°23'3 3.4
2014-Jul-30 11:33N 36°23' E 025°26'0 0.0
2014-Jul-30 10:33N 36°23' E 025°26'0 0.0
2014-Jul-30 09:33N 36°23' E 025°26'0 0.0
2014-Jul-30 08:33N 36°23' E 025°26'0 0.0
2014-Jul-30 07:33N 36°23' E 025°26'0 0.0
2014-Jul-30 06:32N 36°23' E 025°26'0 0.4
2014-Jul-30 05:33N 36°23' E 025°26'6 6.4
2014-Jul-30 04:33N 36°29' E 025°23'1110.4
2014-Jul-30 03:33N 36°33' E 025°35'1010.1
2014-Jul-30 02:33N 36°36' E 025°47'1010.0
2014-Jul-30 01:33N 36°40' E 025°59'1210.4
2014-Jul-30 00:26N 36°43' E 026°12'910.5
2014-Jul-29 23:32N 36°46' E 026°24'10 9.9
2014-Jul-29 22:33N 36°49' E 026°35'10 9.9
2014-Jul-29 21:33N 36°52' E 026°47'  
2014-Jul-22 15:31N 36°55' E 026°57'1110.0
2014-Jul-22 14:25N 36°59' E 026°44'9 9.9
2014-Jul-22 13:33N 37°01' E 026°34'1010.1
2014-Jul-22 12:31N 37°04' E 026°21'1010.3
2014-Jul-22 11:33N 37°07' E 026°10'1010.4
2014-Jul-22 10:33N 37°09' E 025°57'1110.5
2014-Jul-22 09:33N 37°11' E 025°44'1110.3
2014-Jul-22 08:27N 37°14' E 025°30'9 9.8
2014-Jul-22 07:33N 37°16' E 025°19'10 9.7
2014-Jul-22 06:33N 37°18' E 025°07'10 9.9
2014-Jul-22 05:33N 37°20' E 024°55'10 9.9
2014-Jul-22 04:32N 37°24' E 024°43'10 9.7
2014-Jul-22 03:32N 37°28' E 024°32'4110.4
2014-Jul-21 23:32N 37°40' E 023°42'10 9.9
2014-Jul-21 22:33N 37°48' E 023°35'1010.3
2014-Jul-21 21:33N 37°51' E 023°23'1310.1
2014-Jul-21 20:14N 37°55' E 023°06'1 1.2
2014-Jul-21 19:31N 37°55' E 023°05'0 0.0
2014-Jul-21 18:31N 37°55' E 023°05'0 0.0
2014-Jul-21 17:27N 37°55' E 023°05'0 0.0
2014-Jul-21 16:33N 37°55' E 023°05'0 0.0
2014-Jul-21 15:32N 37°55' E 023°05'0 0.0
2014-Jul-21 14:31N 37°55' E 023°05'4 1.6
2014-Jul-21 12:11N 37°52' E 023°09'711.1
2014-Jul-21 11:33N 37°47' E 023°14'1010.4
2014-Jul-21 10:33N 37°39' E 023°23'4610.2
2014-Jul-21 06:03N 37°14' E 024°12'8 9.5
2014-Jul-21 05:10N 37°09' E 024°20'10 9.9
2014-Jul-21 04:12N 37°02' E 024°28'7 9.9
2014-Jul-21 03:30N 36°58' E 024°35'9 9.8
2014-Jul-21 02:32N 36°53' E 024°45'10 9.8
2014-Jul-21 01:32N 36°51' E 024°57'1110.8
2014-Jul-21 00:32N 36°50' E 025°11'1010.4
2014-Jul-20 23:33N 36°48' E 025°23'1010.3
2014-Jul-20 22:33N 36°47' E 025°36'10 9.8
2014-Jul-20 21:33N 36°45' E 025°48'  
Track history (hours):
 
Tides and Currents Weather Stations Pressure Air Temp Water Temp Dewpoint Dewpoint Depression Visibility Wind Speed Wind Dir Waves Ship Positions

Antonios

Last reported at 2014-Jul-30 21:07 UTC. Time now 2014-Jul-30 23:15 UTC.
Position N 36°56' E 026°60'.

Length 57 m; draft 2.9 m.

Type: Tanker. MMSI: 239191300.

Date/timePositionNaut miles runAvg speedWind from/ knotsBaromVisibWave heightAir tempDewpointWater temp
2014-Jul-30 21:07N 36°56' E 026°60'610.4
2014-Jul-30 20:33N 36°53' E 026°53'1110.8
2014-Jul-30 19:33N 36°52' E 026°40'1110.9
2014-Jul-30 18:33N 36°50' E 026°26'9 9.5
2014-Jul-30 17:33N 36°44' E 026°17'10 9.8
2014-Jul-30 16:33N 36°41' E 026°05'1010.2
2014-Jul-30 15:33N 36°38' E 025°53'1010.3
2014-Jul-30 14:33N 36°35' E 025°41'10 9.9
2014-Jul-30 13:33N 36°32' E 025°29'7 7.4
2014-Jul-30 12:33N 36°26' E 025°23'3 3.4
2014-Jul-30 11:33N 36°23' E 025°26'0 0.0
2014-Jul-30 10:33N 36°23' E 025°26'0 0.0
2014-Jul-30 09:33N 36°23' E 025°26'0 0.0
2014-Jul-30 08:33N 36°23' E 025°26'0 0.0
2014-Jul-30 07:33N 36°23' E 025°26'0 0.0
2014-Jul-30 06:32N 36°23' E 025°26'0 0.4
2014-Jul-30 05:33N 36°23' E 025°26'6 6.4
2014-Jul-30 04:33N 36°29' E 025°23'1110.4
2014-Jul-30 03:33N 36°33' E 025°35'1010.1
2014-Jul-30 02:33N 36°36' E 025°47'1010.0
2014-Jul-30 01:33N 36°40' E 025°59'1210.4
2014-Jul-30 00:26N 36°43' E 026°12'910.5
2014-Jul-29 23:32N 36°46' E 026°24'10 9.9
2014-Jul-29 22:33N 36°49' E 026°35'10 9.9
2014-Jul-29 21:33N 36°52' E 026°47'  
2014-Jul-22 15:31N 36°55' E 026°57'1110.0
2014-Jul-22 14:25N 36°59' E 026°44'9 9.9
2014-Jul-22 13:33N 37°01' E 026°34'1010.1
2014-Jul-22 12:31N 37°04' E 026°21'1010.3
2014-Jul-22 11:33N 37°07' E 026°10'1010.4
2014-Jul-22 10:33N 37°09' E 025°57'1110.5
2014-Jul-22 09:33N 37°11' E 025°44'1110.3
2014-Jul-22 08:27N 37°14' E 025°30'9 9.8
2014-Jul-22 07:33N 37°16' E 025°19'10 9.7
2014-Jul-22 06:33N 37°18' E 025°07'10 9.9
2014-Jul-22 05:33N 37°20' E 024°55'10 9.9
2014-Jul-22 04:32N 37°24' E 024°43'10 9.7
2014-Jul-22 03:32N 37°28' E 024°32'4110.4
2014-Jul-21 23:32N 37°40' E 023°42'10 9.9
2014-Jul-21 22:33N 37°48' E 023°35'1010.3
2014-Jul-21 21:33N 37°51' E 023°23'1310.1
2014-Jul-21 20:14N 37°55' E 023°06'1 1.2
2014-Jul-21 19:31N 37°55' E 023°05'0 0.0
2014-Jul-21 18:31N 37°55' E 023°05'0 0.0
2014-Jul-21 17:27N 37°55' E 023°05'0 0.0
2014-Jul-21 16:33N 37°55' E 023°05'0 0.0
2014-Jul-21 15:32N 37°55' E 023°05'0 0.0
2014-Jul-21 14:31N 37°55' E 023°05'4 1.6
2014-Jul-21 12:11N 37°52' E 023°09'711.1
2014-Jul-21 11:33N 37°47' E 023°14'1010.4
2014-Jul-21 10:33N 37°39' E 023°23'4610.2
2014-Jul-21 06:03N 37°14' E 024°12'8 9.5
2014-Jul-21 05:10N 37°09' E 024°20'10 9.9
2014-Jul-21 04:12N 37°02' E 024°28'7 9.9
2014-Jul-21 03:30N 36°58' E 024°35'9 9.8
2014-Jul-21 02:32N 36°53' E 024°45'10 9.8
2014-Jul-21 01:32N 36°51' E 024°57'1110.8
2014-Jul-21 00:32N 36°50' E 025°11'1010.4
2014-Jul-20 23:33N 36°48' E 025°23'1010.3
2014-Jul-20 22:33N 36°47' E 025°36'10 9.8
2014-Jul-20 21:33N 36°45' E 025°48'  

Dump ship's entire track history